Time;durP1;ratioP1;P1;durP2;ratioP2;P2;SDS_P1;SDS_P2;PMS_P1;PMS_P2;Temp;Humidity;BMP_temperature;BMP_pressure;BME280_temperature;BME280_humidity;BME280_pressure;Samples;Min_cycle;Max_cycle;Signal;HPM_P1;HPM_P2
2021/05/20 00:00:44;;;;;;;3.50;2.50;;;;;;;18.62;51.80;102093.50;4764480;30;20052;-81
2021/05/20 00:03:09;;;;;;;3.58;3.05;;;;;;;18.60;51.71;102092.63;4751180;30;20101;-81
2021/05/20 00:05:35;;;;;;;3.38;3.03;;;;;;;18.61;51.65;102097.81;4764916;30;20032;-80
2021/05/20 00:08:00;;;;;;;3.00;2.70;;;;;;;18.63;51.58;102096.09;4749162;30;20039;-81
2021/05/20 00:10:26;;;;;;;3.17;2.70;;;;;;;18.64;51.79;102099.56;4746237;30;20028;-81
2021/05/20 00:12:51;;;;;;;3.45;2.50;;;;;;;18.64;51.90;102100.47;4762340;30;20087;-81
2021/05/20 00:15:17;;;;;;;3.67;2.55;;;;;;;18.61;51.74;102108.25;4749425;30;20036;-81
2021/05/20 00:17:44;;;;;;;4.57;3.10;;;;;;;18.62;51.97;102101.34;4734102;30;20044;-80
2021/05/20 00:20:11;;;;;;;3.72;2.70;;;;;;;18.60;52.07;102097.84;4750310;30;20088;-80
2021/05/20 00:22:37;;;;;;;4.07;3.35;;;;;;;18.58;51.82;102099.56;4736405;30;20047;-81
2021/05/20 00:25:06;;;;;;;4.35;2.75;;;;;;;18.59;52.05;102094.34;4765907;30;20036;-81
2021/05/20 00:27:32;;;;;;;6.82;2.97;;;;;;;18.58;52.20;102090.00;4750347;30;20032;-82
2021/05/20 00:29:57;;;;;;;3.63;3.00;;;;;;;18.60;52.05;102101.31;4735876;30;20082;-80
2021/05/20 00:32:29;;;;;;;3.65;2.88;;;;;;;18.59;52.21;102101.28;4752140;30;20093;-80
2021/05/20 00:34:56;;;;;;;4.20;3.40;;;;;;;18.55;52.03;102100.38;4751013;30;20060;-81
2021/05/20 00:37:21;;;;;;;3.78;3.10;;;;;;;18.58;52.01;102095.22;4764320;30;20079;-81
2021/05/20 00:39:47;;;;;;;4.13;2.83;;;;;;;18.59;52.10;102104.75;4735995;30;20045;-80
2021/05/20 00:42:13;;;;;;;4.35;2.90;;;;;;;18.60;52.16;102103.06;4763543;30;20040;-81
2021/05/20 00:45:00;;;;;;;3.80;3.22;;;;;;;18.55;52.19;102097.78;4750009;30;20037;-80
2021/05/20 00:47:31;;;;;;;3.83;3.10;;;;;;;18.58;52.13;102110.84;4736082;30;20052;-80
2021/05/20 00:50:07;;;;;;;3.28;2.70;;;;;;;18.57;52.17;102116.91;4765097;30;20441;-82
2021/05/20 00:52:35;;;;;;;3.85;2.75;;;;;;;18.57;52.15;102106.50;4749349;30;20043;-80
2021/05/20 00:55:03;;;;;;;4.60;2.80;;;;;;;18.58;52.24;102108.25;4750237;30;20044;-81
2021/05/20 00:57:33;;;;;;;4.70;2.67;;;;;;;18.60;52.21;102105.66;4765992;30;20071;-81
2021/05/20 01:00:07;;;;;;;3.22;2.63;;;;;;;18.62;52.34;102122.19;4738451;30;20044;-81
2021/05/20 01:02:37;;;;;;;3.42;2.65;;;;;;;18.60;52.30;102132.59;4738644;30;20042;-81
2021/05/20 01:05:08;;;;;;;3.28;2.85;;;;;;;18.61;52.28;102131.72;4765391;30;20104;-81
2021/05/20 01:07:34;;;;;;;3.40;2.58;;;;;;;18.59;52.40;102136.06;4767616;30;20086;-81
2021/05/20 01:10:10;;;;;;;3.40;2.53;;;;;;;18.56;52.47;102129.97;4769279;30;20059;-80
2021/05/20 01:16:12;;;;;;;3.97;2.83;;;;;;;18.54;52.38;102131.69;4772878;30;20047;-81
2021/05/20 01:18:44;;;;;;;5.30;2.75;;;;;;;18.54;52.24;102123.88;4769431;30;20044;-83
2021/05/20 01:24:34;;;;;;;4.93;2.60;;;;;;;18.53;52.46;102140.34;4771391;30;20047;-80
2021/05/20 01:27:09;;;;;;;2.78;2.50;;;;;;;18.52;52.34;102136.88;4758073;30;20070;-80
2021/05/20 01:29:49;;;;;;;3.83;2.90;;;;;;;18.50;52.19;102131.66;4747847;30;20031;-81
2021/05/20 01:32:41;;;;;;;5.30;2.83;;;;;;;18.49;52.29;102129.91;4774942;30;20047;-82
2021/05/20 01:41:08;;;;;;;3.75;3.00;;;;;;;18.47;52.31;102130.78;4768402;30;20052;-83
2021/05/20 01:43:38;;;;;;;3.63;2.83;;;;;;;18.47;52.44;102139.47;4770162;30;20050;-81
2021/05/20 01:46:32;;;;;;;3.28;2.88;;;;;;;18.46;52.19;102134.22;4740009;30;20112;-80
2021/05/20 01:49:00;;;;;;;4.22;2.92;;;;;;;18.50;52.43;102139.47;4751778;30;20044;-80
2021/05/20 01:51:27;;;;;;;3.63;2.67;;;;;;;18.49;52.34;102139.47;4766121;30;20036;-80
2021/05/20 02:22:00;;;;;;;4.25;2.03;;;;;;;18.43;52.29;102127.25;5323678;24;20063;-80
2021/05/20 02:24:25;;;;;;;3.10;2.20;;;;;;;18.43;52.27;102126.38;4739836;30;20032;-80
2021/05/20 02:26:53;;;;;;;3.47;2.20;;;;;;;18.40;52.14;102123.75;4799546;24;20500;-80
2021/05/20 02:29:20;;;;;;;2.67;2.15;;;;;;;18.41;52.23;102128.97;4792441;24;20139;-80
2021/05/20 02:31:46;;;;;;;2.10;1.80;;;;;;;18.44;52.23;102125.50;4784591;30;20056;-80
2021/05/20 02:34:13;;;;;;;2.80;2.20;;;;;;;18.39;52.40;102119.41;4769794;30;20024;-79
2021/05/20 03:28:47;;;;;;;2.42;1.58;;;;;;;18.29;52.13;102108.91;5412475;24;20089;-80
2021/05/20 03:31:20;;;;;;;2.20;1.35;;;;;;;18.33;52.17;102108.94;4718818;30;20057;-81
2021/05/20 03:40:20;;;;;;;2.30;1.40;;;;;;;18.28;52.42;102106.28;4787910;30;20058;-80
2021/05/20 03:43:04;;;;;;;2.42;1.60;;;;;;;18.29;52.02;102108.03;4774367;30;20111;-80
2021/05/20 03:49:04;;;;;;;2.15;1.50;;;;;;;18.24;52.08;102114.94;4792240;29;20070;-81
2021/05/20 03:55:05;;;;;;;2.58;1.60;;;;;;;18.23;52.36;102113.22;4791774;30;20058;-80
2021/05/20 03:57:33;;;;;;;2.15;1.60;;;;;;;18.24;52.21;102117.56;4763231;30;20047;-80
2021/05/20 04:03:34;;;;;;;2.70;1.50;;;;;;;18.25;52.18;102116.72;4790030;30;20042;-80
2021/05/20 04:06:09;;;;;;;2.00;1.17;;;;;;;18.27;52.25;102118.47;4772684;30;20034;-79
2021/05/20 04:12:03;;;;;;;3.13;1.33;;;;;;;18.26;52.19;102121.03;4791148;30;20061;-79
2021/05/20 04:14:29;;;;;;;1.75;1.20;;;;;;;18.26;52.17;102124.50;4789274;30;20118;-80
2021/05/20 04:20:23;;;;;;;1.55;1.30;;;;;;;18.30;52.12;102120.22;4812094;24;20097;-80
2021/05/20 04:22:49;;;;;;;1.38;1.23;;;;;;;18.28;52.14;102121.94;4773482;30;20046;-79
2021/05/20 04:28:43;;;;;;;1.67;1.27;;;;;;;18.31;52.11;102121.94;4790703;30;20086;-79
2021/05/20 04:31:10;;;;;;;3.30;1.60;;;;;;;18.34;51.81;102115.91;4760343;30;20028;-80
2021/05/20 04:33:35;;;;;;;2.88;1.40;;;;;;;18.32;51.98;102115.88;4776277;30;20028;-80
2021/05/20 04:36:02;;;;;;;3.58;1.50;;;;;;;18.35;52.03;102117.63;4774749;30;20039;-80
2021/05/20 04:41:51;;;;;;;2.53;1.42;;;;;;;18.37;52.17;102113.31;4791923;30;20123;-80
2021/05/20 04:44:18;;;;;;;1.65;1.30;;;;;;;18.38;51.95;102109.81;4790139;30;20045;-80
2021/05/20 04:50:25;;;;;;;2.22;1.20;;;;;;;18.42;52.00;102112.50;4789104;30;20059;-81
2021/05/20 05:08:44;;;;;;;2.67;1.50;;;;;;;19.43;50.57;102119.13;5032416;24;20051;-85
2021/05/20 05:11:09;;;;;;;2.75;1.48;;;;;;;19.50;50.36;102115.66;4732041;30;20048;-86
2021/05/20 05:13:35;;;;;;;2.47;1.33;;;;;;;19.62;50.42;102110.47;4759018;30;20495;-89
2021/05/20 05:16:00;;;;;;;8.65;2.17;;;;;;;19.57;50.71;102113.94;4743693;30;20039;-87
2021/05/20 05:18:26;;;;;;;13.43;4.93;;;;;;;19.66;50.55;102108.72;4757514;30;20043;-88
2021/05/20 05:20:51;;;;;;;10.25;4.22;;;;;;;19.69;50.85;102111.38;4743169;30;20067;-90
2021/05/20 05:23:17;;;;;;;13.93;4.32;;;;;;;19.69;50.86;102101.81;4757657;30;20172;-89
2021/05/20 05:25:42;;;;;;;10.65;3.72;;;;;;;19.72;50.60;102107.03;4772959;30;20118;-84
2021/05/20 05:28:07;;;;;;;15.00;4.15;;;;;;;19.75;50.63;102106.19;4772276;30;20040;-84
2021/05/20 05:30:33;;;;;;;11.57;4.32;;;;;;;19.81;50.85;102105.31;4771949;30;20447;-85
2021/05/20 05:32:59;;;;;;;8.98;3.63;;;;;;;19.86;50.50;102112.28;4741491;30;20040;-85
2021/05/20 05:35:25;;;;;;;7.97;3.47;;;;;;;19.90;50.53;102111.44;4741318;30;20032;-88
2021/05/20 05:37:50;;;;;;;10.05;3.78;;;;;;;19.97;50.29;102108.78;4726456;30;20040;-85
2021/05/20 05:40:15;;;;;;;7.95;2.95;;;;;;;20.01;50.25;102102.69;4771918;30;20480;-85
2021/05/20 05:42:41;;;;;;;7.47;3.22;;;;;;;20.06;50.19;102109.69;4773246;30;20035;-87
2021/05/20 05:45:07;;;;;;;7.88;2.97;;;;;;;20.12;49.92;102109.69;4741764;30;20229;-91
2021/05/20 05:47:34;;;;;;;9.35;3.25;;;;;;;20.21;50.04;102119.28;4756183;30;20028;-86
2021/05/20 05:50:06;;;;;;;8.88;2.97;;;;;;;20.28;49.66;102121.00;4755504;30;20055;-87
2021/05/20 05:52:31;;;;;;;10.15;3.00;;;;;;;20.35;49.45;102117.50;4728079;30;20036;-84
2021/05/20 05:54:57;;;;;;;10.52;2.95;;;;;;;20.45;49.32;102130.59;4755921;30;20047;-86
2021/05/20 05:57:22;;;;;;;5.25;2.67;;;;;;;20.56;48.86;102131.44;4740894;30;20036;-85
2021/05/20 05:59:49;;;;;;;7.05;2.83;;;;;;;20.66;49.24;102121.84;4740096;30;20138;-84
2021/05/20 06:02:17;;;;;;;5.55;2.38;;;;;;;20.76;48.88;102120.97;4755155;30;20451;-83
2021/05/20 06:04:43;;;;;;;7.25;2.60;;;;;;;20.85;48.46;102114.84;4754856;30;20052;-86
2021/05/20 06:07:08;;;;;;;5.30;2.55;;;;;;;20.89;48.34;102125.28;4740486;30;20070;-85
2021/05/20 06:09:40;;;;;;;5.07;2.20;;;;;;;20.83;48.31;102119.22;4754791;30;20420;-86
2021/05/20 06:12:05;;;;;;;5.22;2.45;;;;;;;20.95;48.07;102114.81;4740723;30;20101;-85
2021/05/20 06:14:31;;;;;;;4.85;2.40;;;;;;;21.03;47.88;102113.91;4754989;30;20044;-85
2021/05/20 06:16:56;;;;;;;4.85;2.03;;;;;;;21.17;47.54;102118.22;4739864;30;20047;-85
2021/05/20 06:19:22;;;;;;;4.55;2.15;;;;;;;21.21;47.44;102120.81;4740040;30;20036;-83
2021/05/20 06:21:53;;;;;;;7.45;2.20;;;;;;;21.17;47.27;102123.44;4754787;30;20130;-83
2021/05/20 06:24:19;;;;;;;4.28;1.70;;;;;;;21.24;47.40;102129.53;4740522;30;20039;-85
2021/05/20 06:26:44;;;;;;;4.32;1.92;;;;;;;21.34;47.28;102133.84;4740439;30;20032;-82
2021/05/20 06:29:10;;;;;;;4.53;1.80;;;;;;;21.44;46.84;102132.06;4740425;30;20377;-82
2021/05/20 06:31:37;;;;;;;5.63;1.90;;;;;;;21.51;46.86;102127.69;4754970;30;20413;-84
2021/05/20 06:34:03;;;;;;;4.95;2.20;;;;;;;21.56;46.53;102124.16;4754785;30;20043;-84
2021/05/20 06:36:28;;;;;;;3.90;1.80;;;;;;;21.58;46.40;102124.16;4770549;30;20040;-81
2021/05/20 06:38:54;;;;;;;4.03;1.73;;;;;;;21.75;46.52;102122.31;4770578;30;20063;-83
2021/05/20 06:41:20;;;;;;;4.30;1.88;;;;;;;21.72;45.76;102124.94;4754626;30;20036;-81
2021/05/20 06:43:46;;;;;;;4.68;1.80;;;;;;;21.65;45.70;102114.50;4772131;30;20036;-82
2021/05/20 06:46:11;;;;;;;3.72;1.83;;;;;;;21.64;45.39;102118.00;4771659;30;20523;-82
2021/05/20 06:48:36;;;;;;;4.47;1.60;;;;;;;21.70;45.51;102124.06;4755939;30;20130;-81
2021/05/20 06:51:04;;;;;;;2.47;1.60;;;;;;;21.71;45.28;102125.81;4756183;30;20395;-81
2021/05/20 06:53:31;;;;;;;4.20;1.80;;;;;;;21.74;44.78;102124.94;4772226;30;20038;-81
2021/05/20 06:55:59;;;;;;;4.80;1.80;;;;;;;21.81;44.72;102118.75;4756542;30;20036;-84
2021/05/20 07:01:09;;;;;;;3.45;1.45;;;;;;;21.81;44.13;102126.63;4772454;30;20504;-83
2021/05/20 07:03:35;;;;;;;5.30;1.70;;;;;;;21.81;44.19;102116.13;4754895;30;20040;-84
2021/05/20 07:06:00;;;;;;;3.70;1.60;;;;;;;21.90;44.22;102120.44;4754549;30;20105;-82
2021/05/20 07:08:26;;;;;;;5.15;1.67;;;;;;;21.88;44.00;102115.19;4770622;30;20555;-85
2021/05/20 07:10:55;;;;;;;3.38;1.20;;;;;;;21.92;43.48;102111.69;4788705;29;20039;-80
2021/05/20 07:13:21;;;;;;;2.88;1.20;;;;;;;21.90;43.08;102107.34;4788454;29;20505;-80
2021/05/20 07:15:47;;;;;;;4.80;1.40;;;;;;;21.88;43.11;102109.97;4788678;29;20039;-83
2021/05/20 07:18:14;;;;;;;4.53;1.48;;;;;;;21.86;43.36;102105.63;4788513;30;20127;-80
2021/05/20 07:20:39;;;;;;;3.33;1.40;;;;;;;21.87;43.31;102108.25;4788488;30;20465;-82
2021/05/20 07:23:16;;;;;;;2.60;1.20;;;;;;;21.85;43.52;102107.38;4791738;30;20036;-81
2021/05/20 07:25:43;;;;;;;2.38;1.10;;;;;;;21.80;43.13;102103.03;4798627;29;20020;-81
2021/05/20 07:28:09;;;;;;;2.88;1.42;;;;;;;21.81;43.05;102103.03;4811912;29;20061;-81
2021/05/20 07:30:35;;;;;;;4.32;1.27;;;;;;;21.75;43.28;102097.84;4800255;30;20058;-83
2021/05/20 07:33:01;;;;;;;2.70;1.27;;;;;;;21.79;42.85;102099.56;4792827;29;20044;-83
2021/05/20 07:35:27;;;;;;;2.67;1.15;;;;;;;21.74;43.03;102099.59;4790582;30;20035;-84
2021/05/20 07:37:52;;;;;;;2.67;1.30;;;;;;;21.76;43.20;102086.50;4791381;30;20038;-86
2021/05/20 07:40:19;;;;;;;3.63;1.33;;;;;;;21.84;43.22;102089.03;4791048;30;20027;-87
2021/05/20 07:42:46;;;;;;;4.70;1.40;;;;;;;21.86;43.97;102082.94;4791455;29;20046;-86
2021/05/20 07:45:13;;;;;;;5.60;1.20;;;;;;;21.87;44.03;102087.28;4791156;30;20038;-86
2021/05/20 07:47:42;;;;;;;3.05;1.10;;;;;;;21.83;44.41;102082.94;4776387;30;20042;-87
2021/05/20 07:50:09;;;;;;;3.53;1.27;;;;;;;21.76;44.51;102087.34;4776103;30;20043;-87
2021/05/20 07:52:35;;;;;;;2.13;0.98;;;;;;;21.73;44.56;102084.75;4790281;30;20032;-88
2021/05/20 07:55:01;;;;;;;6.78;1.52;;;;;;;21.71;44.61;102086.53;4776523;30;20122;-87
2021/05/20 07:57:26;;;;;;;6.15;1.33;;;;;;;21.66;44.47;102080.44;4791351;29;20440;-86
2021/05/20 07:59:52;;;;;;;3.25;1.08;;;;;;;21.67;44.39;102078.69;4790281;30;20111;-87
2021/05/20 08:04:53;;;;;;;2.67;1.07;;;;;;;21.63;44.48;102072.59;4790332;30;20460;-85
2021/05/20 08:10:00;;;;;;;2.60;1.00;;;;;;;21.61;44.61;102078.75;4776987;29;20091;-87
2021/05/20 08:12:25;;;;;;;1.38;0.80;;;;;;;21.60;44.64;102067.41;4773609;30;20043;-87
2021/05/20 08:14:51;;;;;;;1.80;0.90;;;;;;;21.59;44.57;102067.41;4757231;30;20552;-87
2021/05/20 08:17:16;;;;;;;2.65;0.80;;;;;;;21.52;44.51;102062.19;4742921;30;20128;-87
2021/05/20 08:19:44;;;;;;;1.58;0.85;;;;;;;21.56;44.82;102058.69;4728072;30;20495;-88
2021/05/20 08:22:10;;;;;;;1.70;0.85;;;;;;;21.57;44.42;102049.06;4744384;30;20040;-87
2021/05/20 08:24:35;;;;;;;4.07;1.00;;;;;;;21.56;44.62;102044.72;4757145;30;20036;-86
2021/05/20 08:27:03;;;;;;;3.58;1.10;;;;;;;21.55;44.61;102050.81;4742247;30;20507;-87
2021/05/20 08:29:30;;;;;;;1.67;0.90;;;;;;;21.52;44.56;102050.84;4757844;30;20031;-86
2021/05/20 08:31:55;;;;;;;1.33;0.80;;;;;;;21.45;44.78;102051.75;4757891;30;20031;-86
2021/05/20 08:34:20;;;;;;;1.80;0.82;;;;;;;21.45;45.32;102057.88;4773051;30;20044;-86
2021/05/20 08:36:46;;;;;;;2.38;0.95;;;;;;;21.35;45.06;102046.56;4742000;30;20028;-87
2021/05/20 08:39:12;;;;;;;2.25;0.90;;;;;;;21.31;45.41;102042.22;4756246;30;20027;-88
2021/05/20 08:41:38;;;;;;;2.85;0.90;;;;;;;21.30;45.29;102048.34;4757622;30;20051;-87
2021/05/20 08:44:11;;;;;;;2.20;0.90;;;;;;;21.22;45.37;102041.41;4728132;30;20059;-87
2021/05/20 08:46:38;;;;;;;2.58;0.90;;;;;;;21.18;45.42;102043.16;4756969;30;20067;-87
2021/05/20 08:49:06;;;;;;;1.50;0.90;;;;;;;21.12;45.52;102036.22;4742263;30;20457;-87
2021/05/20 08:51:33;;;;;;;2.10;0.82;;;;;;;21.01;45.73;102037.16;4773011;30;20071;-87
2021/05/20 08:53:58;;;;;;;1.17;0.80;;;;;;;20.94;45.61;102037.16;4757167;30;20046;-87
2021/05/20 08:56:25;;;;;;;2.08;1.20;;;;;;;20.90;45.19;102037.19;4757471;30;20043;-89
2021/05/20 08:58:52;;;;;;;3.25;1.10;;;;;;;20.93;45.15;102037.19;4772819;30;20063;-89
2021/05/20 09:01:33;;;;;;;3.15;1.00;;;;;;;20.92;45.07;102040.69;4743032;30;20035;-92
2021/05/20 09:04:00;;;;;;;3.63;1.17;;;;;;;20.97;44.87;102038.94;4757107;30;20031;-94
2021/05/20 09:06:45;;;;;;;3.40;0.98;;;;;;;20.97;45.10;102031.06;4743870;30;20031;-89
2021/05/20 09:09:23;;;;;;;2.70;1.13;;;;;;;20.88;45.06;102032.00;4771986;30;20098;-89
2021/05/20 09:11:53;;;;;;;2.38;1.25;;;;;;;20.77;45.14;102028.53;4776854;30;20043;-90
2021/05/20 09:14:31;;;;;;;2.25;1.30;;;;;;;20.71;44.98;102025.97;4776086;30;20051;-90
2021/05/20 09:17:14;;;;;;;2.78;1.30;;;;;;;20.65;44.95;102019.00;4789967;30;20031;-89
2021/05/20 09:19:42;;;;;;;3.00;1.70;;;;;;;20.65;44.59;102018.13;4789941;30;20027;-90
2021/05/20 09:22:25;;;;;;;;;;;;;;;;;;;;;
2021/05/20 09:25:39;;;;;;;4.28;2.00;;;;;;;20.58;44.41;102008.53;4792152;30;20023;-92
2021/05/20 09:28:05;;;;;;;3.80;1.90;;;;;;;20.59;44.00;102007.69;4774835;29;20038;-86
2021/05/20 09:30:36;;;;;;;3.97;2.00;;;;;;;20.58;44.31;102008.53;4790055;29;20085;-87
2021/05/20 09:33:08;;;;;;;3.63;1.92;;;;;;;20.59;44.08;102008.53;4789899;30;20426;-83
2021/05/20 09:35:37;;;;;;;6.38;2.20;;;;;;;20.61;43.94;102004.19;4789723;30;20063;-85
2021/05/20 09:38:07;;;;;;;4.25;2.05;;;;;;;20.62;43.98;102000.72;4788436;30;20031;-87
2021/05/20 09:40:36;;;;;;;3.45;1.55;;;;;;;20.60;44.06;101991.09;4789986;29;20554;-85
2021/05/20 09:43:20;;;;;;;3.25;1.75;;;;;;;20.58;44.04;101991.13;4789232;29;20483;-85
2021/05/20 09:45:50;;;;;;;5.88;2.08;;;;;;;20.57;44.25;101991.09;4794660;24;20055;-87
2021/05/20 09:48:15;;;;;;;5.03;1.88;;;;;;;20.60;44.18;101991.09;4787957;30;20111;-87
2021/05/20 09:53:16;;;;;;;3.83;1.80;;;;;;;20.64;44.37;101995.44;4794984;24;20431;-85
2021/05/20 09:55:46;;;;;;;3.30;1.40;;;;;;;20.61;44.22;101988.50;4772826;30;20039;-85
2021/05/20 09:58:12;;;;;;;4.55;1.58;;;;;;;20.61;43.77;101985.88;4774863;30;20039;-86
2021/05/20 10:00:39;;;;;;;3.35;1.90;;;;;;;20.59;44.14;101977.16;4810620;29;20015;-86
2021/05/20 10:03:06;;;;;;;4.57;1.60;;;;;;;20.59;43.93;101976.31;4770102;30;20034;-85
2021/05/20 10:05:33;;;;;;;4.45;1.60;;;;;;;20.57;44.17;101978.91;4775786;30;20042;-92
2021/05/20 10:08:07;;;;;;;3.08;1.63;;;;;;;20.58;43.80;101966.69;4774912;30;20058;-92
2021/05/20 10:10:42;;;;;;;3.17;1.77;;;;;;;20.57;43.88;101970.16;4775024;30;20067;-91
2021/05/20 10:13:12;;;;;;;2.63;1.63;;;;;;;20.54;43.44;101958.84;4774388;30;20092;-87
2021/05/20 10:15:40;;;;;;;3.15;1.80;;;;;;;20.54;43.50;101964.06;4773935;30;20035;-92
2021/05/20 10:18:08;;;;;;;4.45;1.75;;;;;;;20.55;43.57;101965.78;4774555;30;20024;-87
2021/05/20 10:20:35;;;;;;;3.35;1.80;;;;;;;20.55;43.43;101962.31;4774095;30;20114;-89
2021/05/20 10:23:01;;;;;;;4.57;1.73;;;;;;;20.53;43.52;101961.47;4773619;30;20480;-89
2021/05/20 10:25:27;;;;;;;3.03;1.70;;;;;;;20.50;43.13;101951.03;4759110;30;20039;-91
2021/05/20 10:27:53;;;;;;;2.03;1.60;;;;;;;20.47;43.19;101954.53;4773900;30;20043;-88
2021/05/20 10:30:22;;;;;;;3.17;1.85;;;;;;;20.46;43.35;101954.53;4773945;30;20055;-91
2021/05/20 10:32:48;;;;;;;4.15;1.60;;;;;;;20.46;43.48;101947.53;4758876;30;20628;-90
2021/05/20 10:35:17;;;;;;;4.43;2.10;;;;;;;20.48;42.98;101947.53;4773896;30;20031;-89
2021/05/20 10:37:43;;;;;;;4.90;1.77;;;;;;;20.49;43.44;101938.81;4759355;30;20402;-90
2021/05/20 10:40:22;;;;;;;3.63;1.52;;;;;;;20.48;43.36;101935.34;4759433;30;20032;-91
2021/05/20 10:42:48;;;;;;;2.92;1.70;;;;;;;20.48;43.13;101924.00;4775486;30;20043;-93
2021/05/20 10:45:23;;;;;;;3.58;1.60;;;;;;;20.46;43.07;101926.63;4766098;30;20035;-88
2021/05/20 10:48:04;;;;;;;3.25;1.70;;;;;;;20.46;43.25;101926.63;4794181;30;20036;-89
2021/05/20 10:50:55;;;;;;;5.13;1.33;;;;;;;20.45;43.19;101918.81;4783488;30;20035;-87
2021/05/20 10:53:40;;;;;;;2.85;1.63;;;;;;;20.45;43.13;101917.06;4759207;30;20040;-87
2021/05/20 10:56:32;;;;;;;3.45;1.60;;;;;;;20.42;42.85;101909.22;4774568;30;20068;-89
2021/05/20 10:58:59;;;;;;;3.72;1.70;;;;;;;20.40;43.22;101910.97;4757932;30;20197;-89
2021/05/20 11:01:24;;;;;;;2.50;1.52;;;;;;;20.40;42.93;101910.97;4759677;30;20040;-87
2021/05/20 11:03:57;;;;;;;2.10;1.52;;;;;;;20.38;42.83;101902.25;4761296;30;20035;-89
2021/05/20 11:06:44;;;;;;;4.60;1.65;;;;;;;20.39;42.93;101904.00;4777284;30;20104;-88
2021/05/20 11:09:11;;;;;;;4.35;1.80;;;;;;;20.40;42.83;101897.88;4751240;30;20047;-89
2021/05/20 11:11:39;;;;;;;4.38;1.70;;;;;;;20.42;42.73;101890.91;4777420;30;20028;-90
2021/05/20 11:14:26;;;;;;;2.17;1.40;;;;;;;20.42;42.62;101884.81;4775671;30;20067;-90
2021/05/20 11:16:52;;;;;;;3.30;1.70;;;;;;;20.44;42.68;101888.28;4759363;30;20032;-88
2021/05/20 11:19:19;;;;;;;3.63;1.77;;;;;;;20.43;42.72;101878.72;4759529;30;20028;-91
2021/05/20 11:24:29;;;;;;;3.42;1.50;;;;;;;20.41;42.69;101872.63;4775009;30;20031;-91
2021/05/20 11:27:23;;;;;;;2.60;1.58;;;;;;;20.39;42.59;101863.94;4775991;30;20035;-89
2021/05/20 11:29:50;;;;;;;3.25;1.67;;;;;;;20.41;42.58;101860.41;4773857;24;20064;-91
2021/05/20 11:32:29;;;;;;;2.22;1.30;;;;;;;20.41;42.59;101862.19;4786289;30;20472;-90
2021/05/20 11:35:22;;;;;;;9.50;1.55;;;;;;;20.42;42.57;101862.16;4794306;30;20031;-88
2021/05/20 11:37:48;;;;;;;4.93;1.42;;;;;;;20.41;42.60;101857.81;4786902;30;20035;-92
2021/05/20 11:40:32;;;;;;;3.47;1.20;;;;;;;20.41;42.52;101860.41;4781294;30;20036;-90
2021/05/20 11:43:00;;;;;;;2.60;1.30;;;;;;;20.42;42.62;101846.47;4776611;30;20046;-90
2021/05/20 11:45:31;;;;;;;2.58;1.38;;;;;;;20.47;42.56;101856.88;4760507;30;20059;-88
2021/05/20 11:47:58;;;;;;;6.55;1.60;;;;;;;20.47;42.67;101847.31;4774048;30;20031;-89
2021/05/20 11:50:25;;;;;;;2.42;1.20;;;;;;;20.49;42.67;101836.84;4774136;30;20036;-90
2021/05/20 11:52:51;;;;;;;5.05;1.40;;;;;;;20.47;42.81;101821.19;4774333;30;20429;-90
2021/05/20 11:55:26;;;;;;;2.40;1.40;;;;;;;20.50;42.81;101815.91;4773855;30;20024;-90
2021/05/20 11:58:03;;;;;;;3.33;1.40;;;;;;;20.50;42.96;101820.28;4774032;30;20113;-93
2021/05/20 12:00:30;;;;;;;2.40;1.40;;;;;;;20.49;42.83;101822.03;4759062;30;20169;-92
2021/05/20 12:02:56;;;;;;;2.72;1.40;;;;;;;20.47;42.88;101822.91;4774727;30;20088;-90
2021/05/20 12:05:23;;;;;;;3.22;1.30;;;;;;;20.47;42.85;101826.41;4773669;30;20084;-90
2021/05/20 12:07:49;;;;;;;4.38;1.40;;;;;;;20.46;43.01;101822.03;4759326;30;20127;-90
2021/05/20 12:10:17;;;;;;;2.53;1.40;;;;;;;20.49;42.77;101831.59;4774111;30;20079;-89
2021/05/20 12:12:54;;;;;;;2.90;1.40;;;;;;;20.49;42.82;101818.53;4773532;30;20039;-89
2021/05/20 12:15:22;;;;;;;4.70;1.65;;;;;;;20.50;43.04;101815.06;4773429;30;20476;-88
2021/05/20 12:17:48;;;;;;;3.55;1.40;;;;;;;20.50;43.01;101812.44;4761567;30;20020;-88
2021/05/20 12:20:16;;;;;;;2.97;1.23;;;;;;;20.48;42.89;101816.81;4783104;30;20038;-88
2021/05/20 12:22:45;;;;;;;1.65;1.10;;;;;;;20.50;43.26;101810.69;4793144;30;20083;-88
2021/05/20 12:25:13;;;;;;;3.72;1.30;;;;;;;20.50;43.21;101815.06;4779852;30;20055;-88
2021/05/20 12:27:39;;;;;;;2.78;1.20;;;;;;;20.49;43.23;101811.59;4773751;30;20030;-88
2021/05/20 12:30:11;;;;;;;1.27;0.82;;;;;;;20.49;43.29;101802.84;4773713;30;20052;-88
2021/05/20 12:32:42;;;;;;;2.92;1.27;;;;;;;20.47;43.42;101805.50;4772222;30;20432;-89
2021/05/20 12:35:19;;;;;;;2.88;1.40;;;;;;;20.47;43.23;101791.53;4772351;30;20063;-89
2021/05/20 12:37:45;;;;;;;2.88;1.40;;;;;;;20.48;43.20;101790.66;4758363;30;20109;-90
2021/05/20 12:40:19;;;;;;;3.65;1.42;;;;;;;20.50;43.48;101786.28;4771525;30;20031;-90
2021/05/20 12:43:19;;;;;;;5.10;1.67;;;;;;;20.52;43.62;101781.91;4757701;30;20094;-90
2021/05/20 12:45:45;;;;;;;3.90;1.75;;;;;;;20.50;43.43;101788.91;4749915;30;20047;-88
2021/05/20 12:48:55;;;;;;;6.88;1.65;;;;;;;20.46;43.94;101789.81;4773236;30;20032;-87
2021/05/20 12:51:23;;;;;;;3.17;1.80;;;;;;;20.41;43.75;101771.53;4771956;30;20119;-89
2021/05/20 12:53:54;;;;;;;3.95;2.17;;;;;;;20.40;43.76;101782.84;4771241;30;20032;-88
2021/05/20 12:56:26;;;;;;;4.43;1.83;;;;;;;20.37;43.47;101779.41;4772831;30;20573;-89
2021/05/20 12:59:04;;;;;;;4.05;1.90;;;;;;;20.31;43.32;101773.31;4771337;30;20500;-87
2021/05/20 13:01:34;;;;;;;4.43;1.95;;;;;;;20.29;43.23;101771.59;4771557;30;20099;-87
2021/05/20 13:04:07;;;;;;;2.70;1.63;;;;;;;20.28;43.24;101788.19;4773103;30;20119;-87
2021/05/20 13:06:33;;;;;;;7.32;2.05;;;;;;;20.31;43.03;101788.16;4776761;30;20432;-87
2021/05/20 13:09:15;;;;;;;4.20;1.80;;;;;;;20.28;42.82;101769.88;4789986;30;20044;-88
2021/05/20 13:11:49;;;;;;;4.18;1.73;;;;;;;20.26;42.64;101746.34;4780823;30;20028;-88
2021/05/20 13:14:46;;;;;;;3.60;1.80;;;;;;;20.24;42.67;101742.88;4771836;30;20036;-87
2021/05/20 13:17:54;;;;;;;4.47;1.73;;;;;;;20.22;42.39;101744.63;4772284;30;20039;-88
2021/05/20 13:23:28;;;;;;;4.55;1.45;;;;;;;20.13;41.33;101745.56;4772895;30;20123;-87
2021/05/20 13:25:54;;;;;;;4.78;1.60;;;;;;;20.13;41.29;101731.63;4766084;30;20066;-87
2021/05/20 13:28:20;;;;;;;2.45;1.50;;;;;;;20.14;41.29;101730.75;4771799;30;20036;-87
2021/05/20 13:30:55;;;;;;;4.15;1.70;;;;;;;20.08;40.72;101726.44;4771363;30;20056;-88
2021/05/20 13:33:26;;;;;;;3.80;1.55;;;;;;;20.07;40.45;101737.75;4772611;30;20472;-87
2021/05/20 13:35:53;;;;;;;3.78;1.35;;;;;;;20.03;40.26;101730.78;4770644;30;20127;-88
2021/05/20 13:38:19;;;;;;;4.50;1.77;;;;;;;20.03;40.17;101715.13;4771918;30;20035;-88
2021/05/20 13:40:45;;;;;;;3.67;1.73;;;;;;;20.02;40.00;101716.00;4771722;30;20089;-87
2021/05/20 13:43:10;;;;;;;3.55;2.05;;;;;;;19.98;39.44;101713.44;4756668;30;20557;-88
2021/05/20 13:45:36;;;;;;;3.88;2.25;;;;;;;19.93;39.32;101722.16;4756265;30;20035;-88
2021/05/20 13:48:01;;;;;;;3.53;2.20;;;;;;;19.94;39.68;101721.25;4756483;30;20084;-89
2021/05/20 13:50:27;;;;;;;3.22;2.30;;;;;;;19.94;39.20;101716.03;4741280;30;20038;-87
2021/05/20 13:52:54;;;;;;;4.97;2.45;;;;;;;19.93;39.31;101709.09;4773680;30;20050;-87
2021/05/20 13:55:20;;;;;;;5.10;2.35;;;;;;;20.00;39.49;101709.06;4783918;30;20031;-86
2021/05/20 13:57:46;;;;;;;3.97;2.13;;;;;;;20.02;39.41;101686.41;4784531;30;20115;-87
2021/05/20 14:00:35;;;;;;;4.07;1.92;;;;;;;20.06;39.59;101690.75;4770658;30;20097;-88
2021/05/20 14:03:04;;;;;;;5.15;2.10;;;;;;;20.07;39.40;101689.84;4770316;30;20047;-90
2021/05/20 14:05:31;;;;;;;4.45;2.60;;;;;;;20.02;39.33;101689.88;4755978;30;20031;-88
2021/05/20 14:07:58;;;;;;;4.53;2.70;;;;;;;19.90;38.88;101690.84;4770171;30;20065;-89
2021/05/20 14:10:25;;;;;;;4.47;2.80;;;;;;;19.87;38.91;101690.84;4770334;30;20063;-86
2021/05/20 14:12:50;;;;;;;3.97;2.22;;;;;;;19.91;39.27;101699.53;4755515;30;20042;-87
2021/05/20 14:15:16;;;;;;;5.10;2.50;;;;;;;19.90;38.73;101685.63;4755343;30;20122;-86
2021/05/20 14:17:46;;;;;;;5.95;2.65;;;;;;;19.87;38.70;101688.22;4770116;30;20024;-87